Time;durP1;ratioP1;P1;durP2;ratioP2;P2;SDS_P1;SDS_P2;PMS_P1;PMS_P2;Temp;Humidity;BMP_temperature;BMP_pressure;BME280_temperature;BME280_humidity;BME280_pressure;Samples;Min_cycle;Max_cycle;Signal;HPM_P1;HPM_P2
2023/04/29 00:00:03;;;;;;;35.57;32.00;;;8.30;93.00;;;;;;4975419;28;20564;-88
2023/04/29 00:02:29;;;;;;;36.70;32.50;;;8.30;93.00;;;;;;4975282;28;20577;-88
2023/04/29 00:04:55;;;;;;;34.70;31.70;;;8.30;93.00;;;;;;4975343;28;20230;-87
2023/04/29 00:07:21;;;;;;;36.03;32.73;;;8.30;93.00;;;;;;4975501;28;20660;-87
2023/04/29 00:09:46;;;;;;;27.27;24.53;;;8.30;92.90;;;;;;4976568;28;20246;-88
2023/04/29 00:12:12;;;;;;;29.60;23.93;;;8.30;92.90;;;;;;4974115;28;20653;-88
2023/04/29 00:14:37;;;;;;;38.90;35.20;;;8.30;92.90;;;;;;4976681;28;20174;-87
2023/04/29 00:17:03;;;;;;;38.63;35.13;;;8.30;93.00;;;;;;4975272;28;20336;-87
2023/04/29 00:19:28;;;;;;;37.70;33.90;;;8.30;93.00;;;;;;4975183;28;20671;-87
2023/04/29 00:21:54;;;;;;;36.97;33.50;;;8.30;93.00;;;;;;4975045;28;20174;-88
2023/04/29 00:24:19;;;;;;;27.00;24.40;;;8.30;93.00;;;;;;4975210;28;20551;-88
2023/04/29 00:26:45;;;;;;;28.83;23.47;;;8.30;93.00;;;;;;4975180;28;20221;-88
2023/04/29 00:29:11;;;;;;;38.37;34.77;;;8.20;93.10;;;;;;4975986;28;20179;-87
2023/04/29 00:31:36;;;;;;;39.23;35.23;;;8.20;93.00;;;;;;4974854;28;20376;-88
2023/04/29 00:34:02;;;;;;;37.40;34.30;;;8.20;93.00;;;;;;4974820;28;20201;-88
2023/04/29 00:36:28;;;;;;;38.87;35.27;;;8.20;93.10;;;;;;4975988;28;20253;-88
2023/04/29 00:38:54;;;;;;;31.70;25.57;;;8.20;93.10;;;;;;4975884;28;20703;-88
2023/04/29 00:41:20;;;;;;;29.03;26.07;;;8.20;93.10;;;;;;4976032;28;20257;-88
2023/04/29 00:43:46;;;;;;;32.17;27.90;;;8.20;93.20;;;;;;4974700;28;20207;-88
2023/04/29 00:46:12;;;;;;;40.70;36.73;;;8.20;93.20;;;;;;4974457;28;20179;-87
2023/04/29 00:48:38;;;;;;;40.00;36.20;;;8.20;93.30;;;;;;4974706;28;20187;-88
2023/04/29 00:51:05;;;;;;;40.63;36.60;;;8.10;93.30;;;;;;4974422;28;20237;-87
2023/04/29 00:53:31;;;;;;;41.23;37.40;;;8.10;93.30;;;;;;4974434;28;20282;-88
2023/04/29 00:55:58;;;;;;;27.77;24.97;;;8.10;93.30;;;;;;4974262;28;20182;-87
2023/04/29 00:58:29;;;;;;;30.30;25.17;;;8.10;93.30;;;;;;4974631;28;20183;-88
2023/04/29 01:00:55;;;;;;;40.87;37.07;;;8.00;93.30;;;;;;4991346;28;20185;-88
2023/04/29 01:03:22;;;;;;;41.37;37.50;;;8.00;93.40;;;;;;4974351;28;20206;-88
2023/04/29 01:05:55;;;;;;;40.67;37.23;;;8.00;93.40;;;;;;4974285;28;20291;-88
2023/04/29 01:08:43;;;;;;;41.13;37.47;;;8.00;93.40;;;;;;4975315;28;20215;-86
2023/04/29 01:11:11;;;;;;;28.57;25.73;;;8.00;93.40;;;;;;4974184;28;20272;-88
2023/04/29 01:13:45;;;;;;;28.63;25.90;;;8.00;93.50;;;;;;4974120;28;20186;-87
2023/04/29 01:16:20;;;;;;;40.67;36.77;;;8.00;93.40;;;;;;4975199;28;20173;-88
2023/04/29 01:18:52;;;;;;;41.23;37.30;;;8.00;93.40;;;;;;4974068;28;20172;-88
2023/04/29 01:21:19;;;;;;;43.10;39.47;;;7.90;93.40;;;;;;4975301;28;20171;-88
2023/04/29 01:23:44;;;;;;;41.23;37.80;;;8.00;93.50;;;;;;4974475;28;20214;-88
2023/04/29 01:26:10;;;;;;;29.97;27.33;;;7.90;93.40;;;;;;4974033;28;20648;-88
2023/04/29 01:29:03;;;;;;;28.10;25.50;;;7.90;93.50;;;;;;4973919;28;20182;-88
2023/04/29 01:31:37;;;;;;;42.40;38.30;;;7.90;93.50;;;;;;4975298;28;20183;-89
2023/04/29 01:34:10;;;;;;;42.13;38.27;;;7.90;93.50;;;;;;4974193;28;20699;-88
2023/04/29 01:36:52;;;;;;;42.33;38.33;;;7.90;93.40;;;;;;4989844;28;20211;-88
2023/04/29 01:39:25;;;;;;;41.87;38.27;;;7.90;93.50;;;;;;4974380;28;20688;-87
2023/04/29 01:42:00;;;;;;;27.87;25.33;;;7.90;93.40;;;;;;4989789;28;20178;-86
2023/04/29 01:44:30;;;;;;;29.27;26.37;;;7.90;93.50;;;;;;4989910;28;20182;-87
2023/04/29 01:46:56;;;;;;;40.97;37.27;;;7.90;93.40;;;;;;4973404;28;20206;-87
2023/04/29 01:49:26;;;;;;;42.83;39.13;;;7.80;93.30;;;;;;4990759;28;20186;-86
2023/04/29 01:51:52;;;;;;;42.90;39.00;;;7.80;93.40;;;;;;4974603;28;20540;-87
2023/04/29 01:54:18;;;;;;;42.33;38.70;;;7.80;93.40;;;;;;4973330;28;20179;-86
2023/04/29 01:56:43;;;;;;;31.77;26.60;;;7.80;93.30;;;;;;4973445;28;20736;-86
2023/04/29 01:59:09;;;;;;;31.17;27.60;;;7.80;93.30;;;;;;4974013;28;20202;-86
2023/04/29 02:01:35;;;;;;;41.40;37.97;;;7.80;93.30;;;;;;4974500;28;20171;-86
2023/04/29 02:04:01;;;;;;;42.10;38.57;;;7.90;93.30;;;;;;4973244;28;20198;-86
2023/04/29 02:06:27;;;;;;;43.73;39.43;;;7.80;93.30;;;;;;4973212;28;20198;-86
2023/04/29 02:08:53;;;;;;;42.77;38.83;;;7.80;93.20;;;;;;4973224;28;20179;-86
2023/04/29 02:11:18;;;;;;;36.97;28.17;;;7.80;93.20;;;;;;4973353;28;20171;-86
2023/04/29 02:13:44;;;;;;;30.70;25.83;;;7.80;93.20;;;;;;4973264;28;20190;-86
2023/04/29 02:16:11;;;;;;;31.50;27.57;;;7.90;93.20;;;;;;4973128;28;20179;-86
2023/04/29 02:18:37;;;;;;;44.47;40.43;;;7.80;93.20;;;;;;4973133;28;20237;-86
2023/04/29 02:21:02;;;;;;;45.67;41.33;;;7.80;93.20;;;;;;4973068;28;20619;-87
2023/04/29 02:23:28;;;;;;;44.90;40.80;;;7.80;93.30;;;;;;4974299;28;20202;-86
2023/04/29 02:25:54;;;;;;;43.70;39.63;;;7.90;93.20;;;;;;4973039;28;20175;-87
2023/04/29 02:28:19;;;;;;;31.97;28.70;;;7.90;93.20;;;;;;4974673;28;20194;-86
2023/04/29 02:30:45;;;;;;;32.93;28.60;;;7.90;93.20;;;;;;4972997;28;20185;-86
2023/04/29 02:33:10;;;;;;;47.10;42.77;;;7.80;93.20;;;;;;4973001;28;20203;-86
2023/04/29 02:35:36;;;;;;;46.80;41.97;;;7.90;93.20;;;;;;4976303;28;20176;-86
2023/04/29 02:38:02;;;;;;;44.80;41.00;;;7.80;93.20;;;;;;4978096;28;20186;-86
2023/04/29 02:40:28;;;;;;;45.67;41.67;;;7.80;93.20;;;;;;4976775;28;20221;-87
2023/04/29 02:42:53;;;;;;;33.30;29.43;;;7.90;93.20;;;;;;4977850;28;20305;-87
2023/04/29 02:45:19;;;;;;;31.67;28.57;;;7.90;93.20;;;;;;4976720;28;20174;-86
2023/04/29 02:47:44;;;;;;;44.97;40.53;;;7.90;93.30;;;;;;4977858;28;20236;-87
2023/04/29 02:50:10;;;;;;;46.33;42.10;;;7.90;93.20;;;;;;4976621;28;20175;-87
2023/04/29 02:52:36;;;;;;;46.00;41.90;;;7.90;93.20;;;;;;4976670;28;20277;-87
2023/04/29 02:55:01;;;;;;;45.90;41.57;;;7.80;93.20;;;;;;4977843;28;20185;-87
2023/04/29 02:57:28;;;;;;;43.53;39.03;;;7.80;93.20;;;;;;4992730;28;20199;-86
2023/04/29 02:59:54;;;;;;;33.60;30.27;;;7.80;93.20;;;;;;4976574;28;20189;-86
2023/04/29 03:02:20;;;;;;;38.87;30.03;;;7.80;93.30;;;;;;4977564;28;20199;-87
2023/04/29 03:04:45;;;;;;;45.67;41.40;;;7.80;93.30;;;;;;4978023;28;20182;-87
2023/04/29 03:07:11;;;;;;;44.53;40.63;;;7.90;93.30;;;;;;4977529;28;20197;-87
2023/04/29 03:09:36;;;;;;;45.73;41.70;;;7.90;93.30;;;;;;4976167;28;20175;-86
2023/04/29 03:12:02;;;;;;;46.07;42.07;;;7.90;93.30;;;;;;4976301;28;20274;-87
2023/04/29 03:14:28;;;;;;;33.90;30.47;;;7.90;93.30;;;;;;4977676;28;20222;-87
2023/04/29 03:16:55;;;;;;;34.07;30.67;;;7.80;93.20;;;;;;4976552;28;20198;-87
2023/04/29 03:19:21;;;;;;;46.97;42.40;;;7.80;93.20;;;;;;4976062;28;20179;-87
2023/04/29 03:21:46;;;;;;;46.10;41.73;;;7.80;93.30;;;;;;4976133;28;20649;-87
2023/04/29 03:24:12;;;;;;;45.50;41.67;;;7.80;93.30;;;;;;4975963;28;20239;-87
2023/04/29 03:26:37;;;;;;;43.70;39.90;;;7.80;93.30;;;;;;4975916;28;20708;-87
2023/04/29 03:29:02;;;;;;;31.30;27.27;;;7.80;93.30;;;;;;4975990;28;20637;-87
2023/04/29 03:31:28;;;;;;;30.67;27.70;;;7.80;93.30;;;;;;4976070;28;20219;-87
2023/04/29 03:33:54;;;;;;;32.97;28.33;;;7.80;93.30;;;;;;4975875;28;20206;-86
2023/04/29 03:36:19;;;;;;;43.53;39.77;;;7.90;93.40;;;;;;4977174;28;20199;-87
2023/04/29 03:38:45;;;;;;;41.63;38.07;;;7.80;93.30;;;;;;4977282;28;20217;-87
2023/04/29 03:41:10;;;;;;;45.47;40.63;;;7.80;93.20;;;;;;4975668;28;20179;-87
2023/04/29 03:43:36;;;;;;;44.70;40.63;;;7.90;93.30;;;;;;4976861;28;20252;-87
2023/04/29 03:46:01;;;;;;;31.00;28.00;;;7.90;93.20;;;;;;4975538;28;20178;-86
2023/04/29 03:48:27;;;;;;;33.27;28.63;;;7.80;93.20;;;;;;4977151;28;20182;-87
2023/04/29 03:50:52;;;;;;;42.23;38.37;;;7.90;93.20;;;;;;4975482;28;20179;-87
2023/04/29 03:53:19;;;;;;;42.30;38.30;;;7.90;93.10;;;;;;4975541;28;20185;-87
2023/04/29 03:55:45;;;;;;;42.83;38.63;;;7.90;93.20;;;;;;4975430;28;20183;-87
2023/04/29 03:58:10;;;;;;;41.73;38.10;;;7.90;93.10;;;;;;4975380;28;20225;-87
2023/04/29 04:00:36;;;;;;;30.77;27.60;;;7.90;93.10;;;;;;4975308;28;20190;-87
2023/04/29 04:03:02;;;;;;;30.83;27.60;;;7.90;93.00;;;;;;4976464;28;20198;-87
2023/04/29 04:05:28;;;;;;;40.67;36.87;;;7.80;92.90;;;;;;4976081;28;20213;-87
2023/04/29 04:07:54;;;;;;;40.37;36.77;;;7.80;92.90;;;;;;4975123;28;20261;-87
2023/04/29 04:10:19;;;;;;;40.60;36.93;;;7.90;92.90;;;;;;4975280;28;20167;-87
2023/04/29 04:12:46;;;;;;;38.70;35.27;;;7.80;92.90;;;;;;4975198;28;20214;-87
2023/04/29 04:15:12;;;;;;;37.40;34.07;;;7.80;92.90;;;;;;4975140;28;20657;-87
2023/04/29 04:17:38;;;;;;;28.27;24.50;;;7.80;92.80;;;;;;4976181;28;20211;-87
2023/04/29 04:20:04;;;;;;;30.40;25.37;;;7.80;92.80;;;;;;4976498;28;20582;-87
2023/04/29 04:22:30;;;;;;;40.40;36.80;;;7.80;92.80;;;;;;4974802;28;20210;-87
2023/04/29 04:24:55;;;;;;;40.53;36.57;;;7.80;92.80;;;;;;4974923;28;20310;-86
2023/04/29 04:27:21;;;;;;;40.30;36.60;;;7.80;92.80;;;;;;4976386;28;20191;-87
2023/04/29 04:29:47;;;;;;;39.57;35.87;;;7.80;92.80;;;;;;4975045;28;20187;-87
2023/04/29 04:32:12;;;;;;;29.77;26.37;;;7.70;92.70;;;;;;4974727;28;20270;-87
2023/04/29 04:34:40;;;;;;;29.03;26.43;;;7.70;92.70;;;;;;4991375;28;20175;-87
2023/04/29 04:37:07;;;;;;;41.50;37.53;;;7.70;92.70;;;;;;4974602;28;20207;-87
2023/04/29 04:39:32;;;;;;;38.37;34.83;;;7.70;92.70;;;;;;4974660;28;20253;-87
2023/04/29 04:41:58;;;;;;;40.50;36.87;;;7.70;92.60;;;;;;4974532;28;20657;-87
2023/04/29 04:44:23;;;;;;;39.87;36.07;;;7.70;92.70;;;;;;4974837;28;20234;-87
2023/04/29 04:46:52;;;;;;;29.93;26.70;;;7.70;92.70;;;;;;4974418;28;20341;-87
2023/04/29 04:49:17;;;;;;;30.47;26.43;;;7.70;92.50;;;;;;4974552;28;20205;-87
2023/04/29 04:51:44;;;;;;;35.03;31.63;;;7.80;92.60;;;;;;4974480;28;20187;-87
2023/04/29 04:54:09;;;;;;;38.03;34.33;;;7.80;92.50;;;;;;4990614;28;20185;-87
2023/04/29 04:56:36;;;;;;;34.80;31.60;;;7.90;92.40;;;;;;4974290;28;20578;-86
2023/04/29 04:59:02;;;;;;;36.90;33.30;;;7.90;92.40;;;;;;4973810;28;20182;-87
2023/04/29 05:01:28;;;;;;;37.60;34.03;;;7.90;92.20;;;;;;4974850;28;20182;-86
2023/04/29 05:03:53;;;;;;;29.37;26.20;;;7.80;92.20;;;;;;4975387;28;20211;-87
2023/04/29 05:06:19;;;;;;;28.10;24.90;;;7.80;92.10;;;;;;4975265;28;20229;-87
2023/04/29 05:08:44;;;;;;;36.67;33.37;;;7.80;92.10;;;;;;4974203;28;20548;-87
2023/04/29 05:11:17;;;;;;;38.00;34.27;;;7.80;92.00;;;;;;4974474;28;20691;-87
2023/04/29 05:13:43;;;;;;;36.43;33.17;;;7.80;92.00;;;;;;4973984;28;20178;-87
2023/04/29 05:16:08;;;;;;;36.37;33.23;;;7.80;92.00;;;;;;4973923;28;20186;-87
2023/04/29 05:18:34;;;;;;;27.70;24.70;;;7.90;92.00;;;;;;4975453;28;20703;-86
2023/04/29 05:21:00;;;;;;;28.23;25.20;;;7.90;92.00;;;;;;4974167;28;20185;-87
2023/04/29 05:23:26;;;;;;;36.70;33.07;;;7.80;92.00;;;;;;4973809;28;20211;-87
2023/04/29 05:25:52;;;;;;;37.53;33.63;;;7.90;92.00;;;;;;4975065;28;20167;-87
2023/04/29 05:28:18;;;;;;;37.07;33.73;;;8.00;92.00;;;;;;4973657;28;20199;-87
2023/04/29 05:30:43;;;;;;;40.03;36.17;;;8.00;92.00;;;;;;4973764;28;20185;-87
2023/04/29 05:33:10;;;;;;;29.13;26.10;;;8.00;92.00;;;;;;4974852;28;20223;-87
2023/04/29 05:35:36;;;;;;;31.13;26.43;;;8.10;92.00;;;;;;4973739;28;20265;-87
2023/04/29 05:38:01;;;;;;;32.40;29.23;;;8.20;92.00;;;;;;4974830;28;20711;-87
2023/04/29 05:40:27;;;;;;;37.17;33.47;;;8.20;92.00;;;;;;4974864;28;20182;-87
2023/04/29 05:42:53;;;;;;;37.50;33.67;;;8.30;92.00;;;;;;4974410;28;20226;-87
2023/04/29 05:45:18;;;;;;;40.47;36.37;;;8.30;92.00;;;;;;4973732;28;20619;-87
2023/04/29 05:47:44;;;;;;;38.23;34.37;;;8.40;92.00;;;;;;4974983;28;20239;-86
2023/04/29 05:50:10;;;;;;;33.30;26.37;;;8.50;91.90;;;;;;4973515;28;20225;-87
2023/04/29 05:52:36;;;;;;;36.60;27.43;;;8.50;92.00;;;;;;4973483;28;20179;-87
2023/04/29 05:55:01;;;;;;;37.70;33.90;;;8.60;92.00;;;;;;4973342;28;20182;-87
2023/04/29 05:57:27;;;;;;;39.47;35.43;;;8.70;92.00;;;;;;4973244;28;20258;-87
2023/04/29 05:59:54;;;;;;;40.03;35.43;;;8.70;91.80;;;;;;4974512;28;20202;-87
2023/04/29 06:02:19;;;;;;;38.93;35.13;;;8.80;91.80;;;;;;4974354;28;20691;-86
2023/04/29 06:04:46;;;;;;;30.57;27.40;;;8.90;91.80;;;;;;4989481;28;20175;-87
2023/04/29 06:07:12;;;;;;;30.90;25.07;;;9.00;91.60;;;;;;4973249;28;20195;-87
2023/04/29 06:09:38;;;;;;;39.47;35.63;;;9.10;91.50;;;;;;4973515;28;20179;-87
2023/04/29 06:12:04;;;;;;;36.63;33.03;;;9.20;91.40;;;;;;4974633;28;20656;-87
2023/04/29 06:14:30;;;;;;;38.03;34.07;;;9.20;91.00;;;;;;4973123;28;20618;-87
2023/04/29 06:16:56;;;;;;;36.00;32.30;;;9.20;90.90;;;;;;4973777;28;20292;-87
2023/04/29 06:19:21;;;;;;;36.23;32.63;;;9.30;90.60;;;;;;4974313;28;20185;-87
2023/04/29 06:21:47;;;;;;;26.70;23.47;;;9.30;90.30;;;;;;4974255;28;20202;-87
2023/04/29 06:24:12;;;;;;;27.97;23.93;;;9.40;90.00;;;;;;4974548;28;20206;-87
2023/04/29 06:26:38;;;;;;;36.37;33.00;;;9.40;89.70;;;;;;4972986;28;20234;-87
2023/04/29 06:29:03;;;;;;;32.50;28.90;;;9.50;89.50;;;;;;4974817;28;20174;-87
2023/04/29 06:31:29;;;;;;;34.60;30.87;;;9.60;89.10;;;;;;4974223;28;20187;-87
2023/04/29 06:33:54;;;;;;;34.77;31.07;;;9.70;88.90;;;;;;4974223;28;20650;-87
2023/04/29 06:36:20;;;;;;;32.73;22.37;;;9.70;88.40;;;;;;4972877;28;20213;-86
2023/04/29 06:38:45;;;;;;;23.67;21.03;;;9.80;88.10;;;;;;4973028;28;20236;-87
2023/04/29 06:41:11;;;;;;;33.03;29.57;;;9.70;87.80;;;;;;4972975;28;20653;-87
2023/04/29 06:43:36;;;;;;;31.43;28.23;;;9.80;87.80;;;;;;4972953;28;20736;-87
2023/04/29 06:46:02;;;;;;;30.17;27.27;;;9.80;87.60;;;;;;4974113;28;20186;-87
2023/04/29 06:48:27;;;;;;;32.77;28.67;;;9.90;87.00;;;;;;4972920;28;20645;-87
2023/04/29 06:50:55;;;;;;;30.73;27.73;;;10.00;86.30;;;;;;4972790;28;20175;-87
2023/04/29 06:53:21;;;;;;;26.13;20.50;;;9.90;85.60;;;;;;4972900;28;20238;-86
2023/04/29 06:55:47;;;;;;;25.50;20.57;;;10.00;84.90;;;;;;4973972;28;20596;-86
2023/04/29 06:58:17;;;;;;;32.37;29.07;;;10.00;84.60;;;;;;4972736;28;20203;-86
2023/04/29 07:00:47;;;;;;;32.53;29.47;;;10.00;84.70;;;;;;4972637;28;20186;-86
2023/04/29 07:03:13;;;;;;;34.03;30.47;;;10.10;85.00;;;;;;4972716;28;20211;-87
2023/04/29 07:05:40;;;;;;;32.10;28.87;;;10.20;85.50;;;;;;4972714;28;20259;-87
2023/04/29 07:08:07;;;;;;;26.97;21.27;;;10.20;85.70;;;;;;4972598;28;20289;-87
2023/04/29 07:10:33;;;;;;;27.07;22.80;;;10.10;85.80;;;;;;4972685;28;20192;-87
2023/04/29 07:12:59;;;;;;;30.93;27.80;;;10.00;85.60;;;;;;4972674;28;20190;-87
2023/04/29 07:15:29;;;;;;;32.80;28.97;;;10.20;85.70;;;;;;4972667;28;20205;-87
2023/04/29 07:17:55;;;;;;;30.10;26.97;;;10.20;85.60;;;;;;4973393;28;20203;-87
2023/04/29 07:20:21;;;;;;;30.77;27.77;;;10.30;85.20;;;;;;4972639;28;20668;-87
2023/04/29 07:22:46;;;;;;;21.77;18.80;;;10.30;84.70;;;;;;4977253;28;20647;-86
2023/04/29 07:25:12;;;;;;;20.83;18.57;;;10.40;84.10;;;;;;4977279;28;20175;-86
2023/04/29 07:27:38;;;;;;;22.67;20.20;;;10.40;83.10;;;;;;4976117;28;20198;-87
2023/04/29 07:30:04;;;;;;;30.53;27.53;;;10.50;82.90;;;;;;4977447;28;20664;-87
2023/04/29 07:32:30;;;;;;;28.67;26.27;;;10.60;83.10;;;;;;4975799;28;20195;-87
2023/04/29 07:34:56;;;;;;;30.27;27.57;;;10.50;82.10;;;;;;4976903;28;20179;-87
2023/04/29 07:37:22;;;;;;;30.70;28.10;;;10.50;81.60;;;;;;4975753;28;20205;-86
2023/04/29 07:39:47;;;;;;;20.07;18.17;;;10.50;81.70;;;;;;4976398;28;20186;-86
2023/04/29 07:42:13;;;;;;;24.57;18.93;;;10.50;81.90;;;;;;4975624;28;20190;-87
2023/04/29 07:44:39;;;;;;;30.83;28.03;;;10.40;81.20;;;;;;4991827;28;20225;-87
2023/04/29 07:47:04;;;;;;;30.30;27.67;;;10.50;81.20;;;;;;4975589;28;20226;-87
2023/04/29 07:49:30;;;;;;;29.57;26.77;;;10.50;81.60;;;;;;4975661;28;20182;-87
2023/04/29 07:51:56;;;;;;;31.27;28.33;;;10.50;81.60;;;;;;4975585;28;20213;-87
2023/04/29 07:54:22;;;;;;;22.03;19.37;;;10.60;81.20;;;;;;4975534;28;20193;-87
2023/04/29 07:56:48;;;;;;;19.53;17.70;;;10.60;81.30;;;;;;4976884;28;20191;-86
2023/04/29 07:59:13;;;;;;;20.80;18.70;;;10.70;81.20;;;;;;4975464;28;20557;-87
2023/04/29 08:01:42;;;;;;;28.67;25.63;;;10.70;81.00;;;;;;4975351;28;20194;-86
2023/04/29 08:04:07;;;;;;;29.33;26.43;;;10.70;80.50;;;;;;4975727;28;20261;-85
2023/04/29 08:06:33;;;;;;;27.63;24.90;;;10.80;80.10;;;;;;4976635;28;20261;-85
2023/04/29 08:08:59;;;;;;;30.07;27.33;;;10.90;80.80;;;;;;4976754;28;20178;-85
2023/04/29 08:11:25;;;;;;;21.20;19.20;;;10.90;80.00;;;;;;4976878;28;20175;-85
2023/04/29 08:13:52;;;;;;;22.20;19.77;;;11.00;79.80;;;;;;4976315;28;20270;-86
2023/04/29 08:16:17;;;;;;;29.43;26.70;;;11.20;79.40;;;;;;4975115;28;20198;-87
2023/04/29 08:18:43;;;;;;;28.37;25.80;;;11.20;79.50;;;;;;4976563;28;20551;-87
2023/04/29 08:21:11;;;;;;;29.73;27.13;;;11.20;79.30;;;;;;4976507;28;20178;-87
2023/04/29 08:23:37;;;;;;;29.83;26.87;;;11.10;78.50;;;;;;4974923;28;20265;-87
2023/04/29 08:26:03;;;;;;;20.30;18.33;;;11.20;79.10;;;;;;4975118;28;20175;-87
2023/04/29 08:28:29;;;;;;;23.53;18.73;;;11.20;78.70;;;;;;4976429;28;20183;-87
2023/04/29 08:30:55;;;;;;;29.90;26.87;;;11.20;78.50;;;;;;4974886;28;20181;-87
2023/04/29 08:33:21;;;;;;;29.97;27.47;;;11.20;78.00;;;;;;4975924;28;20218;-87
2023/04/29 08:35:46;;;;;;;29.73;27.20;;;11.30;78.20;;;;;;4974833;28;20265;-87
2023/04/29 08:38:12;;;;;;;26.93;24.27;;;11.40;78.40;;;;;;4974704;28;20564;-86
2023/04/29 08:40:43;;;;;;;27.93;25.43;;;11.60;78.70;;;;;;4990810;28;20179;-87
2023/04/29 08:43:09;;;;;;;21.53;19.43;;;11.70;77.60;;;;;;4974690;28;20759;-87
2023/04/29 08:45:35;;;;;;;26.20;18.90;;;11.80;77.50;;;;;;4974695;28;20179;-87
2023/04/29 08:48:06;;;;;;;27.33;25.17;;;11.90;77.50;;;;;;4974422;28;20195;-86
2023/04/29 08:50:38;;;;;;;29.50;25.33;;;12.10;76.20;;;;;;4975671;28;20202;-86
2023/04/29 08:53:08;;;;;;;29.40;26.90;;;12.10;74.90;;;;;;4974500;28;20179;-87
2023/04/29 08:55:45;;;;;;;30.07;27.37;;;12.10;72.30;;;;;;4974341;28;20174;-87
2023/04/29 08:58:13;;;;;;;19.90;18.00;;;12.20;72.10;;;;;;4974307;28;20222;-86
2023/04/29 09:00:43;;;;;;;20.00;18.23;;;12.30;72.00;;;;;;4975757;28;20261;-86
2023/04/29 09:03:23;;;;;;;29.17;26.77;;;12.40;70.00;;;;;;4974256;28;20256;-86
2023/04/29 09:05:52;;;;;;;28.10;25.93;;;12.40;69.00;;;;;;4974341;28;20262;-87
2023/04/29 09:08:20;;;;;;;24.10;21.87;;;12.60;70.80;;;;;;4990310;28;20688;-86
2023/04/29 09:10:46;;;;;;;25.17;22.87;;;12.90;71.50;;;;;;4990353;28;20198;-86
2023/04/29 09:13:30;;;;;;;21.13;19.03;;;13.00;70.80;;;;;;4974080;28;20178;-86
2023/04/29 09:15:56;;;;;;;21.53;19.57;;;13.10;69.90;;;;;;4973968;28;20185;-85
2023/04/29 09:18:47;;;;;;;29.83;27.10;;;13.00;70.30;;;;;;4973881;28;20199;-85
2023/04/29 09:21:22;;;;;;;28.87;26.30;;;13.10;69.90;;;;;;4973849;28;20182;-86
2023/04/29 09:23:52;;;;;;;29.07;26.20;;;13.10;69.40;;;;;;4973703;28;20203;-87
2023/04/29 09:26:19;;;;;;;30.10;27.50;;;13.20;70.10;;;;;;4973751;28;20230;-87
2023/04/29 09:28:46;;;;;;;23.73;21.37;;;13.30;69.60;;;;;;4973776;28;20178;-86
2023/04/29 09:31:12;;;;;;;21.20;19.00;;;13.20;68.60;;;;;;4975143;28;20167;-86
2023/04/29 09:33:52;;;;;;;30.27;27.57;;;13.20;69.40;;;;;;4974053;28;20220;-86
2023/04/29 09:36:48;;;;;;;29.83;27.47;;;13.30;68.40;;;;;;4973649;28;20592;-86
2023/04/29 09:39:21;;;;;;;29.93;26.90;;;13.40;67.60;;;;;;4973959;28;20704;-86
2023/04/29 09:41:52;;;;;;;28.23;25.97;;;13.60;68.80;;;;;;4973714;28;20210;-86
2023/04/29 09:44:23;;;;;;;22.13;20.20;;;13.70;67.60;;;;;;4989545;28;20202;-87
2023/04/29 09:46:56;;;;;;;21.47;19.67;;;13.80;67.60;;;;;;4974386;28;20603;-87
2023/04/29 09:49:24;;;;;;;29.90;27.20;;;14.00;68.90;;;;;;4973591;28;20197;-87
2023/04/29 09:51:58;;;;;;;28.97;26.53;;;14.10;67.50;;;;;;4973423;28;20197;-87
2023/04/29 09:54:29;;;;;;;32.17;29.03;;;14.30;67.50;;;;;;4974734;28;20179;-87
2023/04/29 09:56:56;;;;;;;25.40;23.07;;;14.10;66.10;;;;;;4973493;28;20206;-88
2023/04/29 09:59:23;;;;;;;23.08;21.08;;;14.30;67.50;;;;;;4973359;28;20179;-87
2023/04/29 10:01:50;;;;;;;24.35;22.20;;;14.40;64.80;;;;;;4973364;28;20187;-87
2023/04/29 10:04:17;;;;;;;32.97;29.95;;;14.60;66.40;;;;;;4974514;28;20241;-86
2023/04/29 10:06:48;;;;;;;32.95;29.95;;;14.70;64.80;;;;;;4973178;28;20195;-87
2023/04/29 10:09:15;;;;;;;30.88;28.33;;;14.70;63.60;;;;;;4974508;28;20576;-87
2023/04/29 10:11:47;;;;;;;30.10;27.75;;;14.80;63.50;;;;;;4973383;28;20174;-87
2023/04/29 10:14:24;;;;;;;24.02;21.42;;;14.80;63.80;;;;;;4973294;28;20186;-88
2023/04/29 10:17:08;;;;;;;24.58;22.40;;;14.80;64.70;;;;;;4974408;28;20195;-87
2023/04/29 10:19:39;;;;;;;29.83;27.17;;;14.80;64.30;;;;;;4973313;28;20181;-88
2023/04/29 10:22:09;;;;;;;30.65;27.92;;;15.10;64.70;;;;;;4973137;28;20229;-88
2023/04/29 10:24:37;;;;;;;29.50;27.00;;;15.20;65.30;;;;;;4974687;28;20622;-87
2023/04/29 10:27:11;;;;;;;22.55;20.42;;;15.50;64.20;;;;;;4973501;28;20290;-87
2023/04/29 10:29:37;;;;;;;23.15;20.85;;;15.50;63.90;;;;;;4974399;28;20170;-87
2023/04/29 10:32:06;;;;;;;23.35;20.90;;;15.40;63.40;;;;;;4973250;28;20225;-88
2023/04/29 10:34:33;;;;;;;30.00;27.20;;;15.10;64.30;;;;;;4974419;28;20171;-86
2023/04/29 10:36:59;;;;;;;29.83;27.17;;;14.60;65.20;;;;;;4973544;28;20217;-85
2023/04/29 10:39:38;;;;;;;28.33;25.98;;;15.00;66.80;;;;;;4973588;28;20646;-86
2023/04/29 10:42:04;;;;;;;21.65;19.67;;;15.40;64.80;;;;;;4973608;28;20723;-86
2023/04/29 10:44:30;;;;;;;20.60;18.80;;;15.30;61.50;;;;;;4974757;28;20553;-85
2023/04/29 10:47:17;;;;;;;20.60;18.67;;;15.40;61.50;;;;;;4975660;28;20253;-87
2023/04/29 10:50:01;;;;;;;30.70;28.10;;;15.10;62.10;;;;;;4978101;28;20198;-85
2023/04/29 10:52:27;;;;;;;27.25;25.10;;;14.60;63.40;;;;;;4978229;28;20174;-86
2023/04/29 10:55:02;;;;;;;29.85;27.27;;;15.30;63.90;;;;;;4975902;28;20182;-85
2023/04/29 10:57:29;;;;;;;23.42;20.98;;;15.50;63.20;;;;;;4980431;28;20269;-86
2023/04/29 10:59:55;;;;;;;22.73;20.83;;;15.20;62.80;;;;;;4979204;28;20178;-86
2023/04/29 11:02:20;;;;;;;29.77;27.30;;;15.00;64.40;;;;;;4982078;28;20174;-85
2023/04/29 11:05:05;;;;;;;29.25;26.83;;;15.00;63.50;;;;;;4980859;28;20213;-85
2023/04/29 11:07:31;;;;;;;28.77;26.25;;;15.10;63.80;;;;;;4980869;28;20214;-85
2023/04/29 11:09:56;;;;;;;28.63;26.33;;;15.50;65.00;;;;;;4979020;28;20167;-85
2023/04/29 11:12:22;;;;;;;23.15;20.80;;;15.60;62.80;;;;;;4982621;28;20175;-85
2023/04/29 11:14:51;;;;;;;21.38;19.65;;;15.70;63.30;;;;;;4981409;28;20644;-85
2023/04/29 11:17:19;;;;;;;29.73;27.42;;;15.90;63.30;;;;;;4981846;28;20195;-85
2023/04/29 11:19:47;;;;;;;30.45;27.38;;;16.00;61.80;;;;;;4980678;28;20186;-85
2023/04/29 11:22:29;;;;;;;29.50;26.83;;;15.80;62.30;;;;;;4981992;28;20174;-85
2023/04/29 11:25:03;;;;;;;22.20;20.17;;;16.20;62.80;;;;;;4980944;28;20537;-85
2023/04/29 11:27:33;;;;;;;21.55;19.52;;;16.40;61.00;;;;;;4996847;28;20201;-85
2023/04/29 11:30:02;;;;;;;20.20;18.60;;;15.70;62.10;;;;;;4980111;28;20538;-86
2023/04/29 11:32:49;;;;;;;26.77;24.60;;;15.70;61.90;;;;;;4980016;28;20194;-86
2023/04/29 11:35:17;;;;;;;27.33;24.83;;;15.70;61.80;;;;;;4980389;28;20568;-85
2023/04/29 11:37:44;;;;;;;30.80;24.48;;;15.80;61.30;;;;;;4981838;28;20201;-85
2023/04/29 11:40:12;;;;;;;19.42;17.65;;;15.80;61.40;;;;;;4980230;28;20190;-85
2023/04/29 11:42:44;;;;;;;18.83;17.13;;;15.90;63.20;;;;;;4994508;28;20206;-85
2023/04/29 11:45:10;;;;;;;27.33;24.83;;;16.20;63.20;;;;;;4979201;28;20167;-85
2023/04/29 11:47:37;;;;;;;26.40;24.02;;;16.20;61.40;;;;;;4977406;28;20198;-85
2023/04/29 11:50:08;;;;;;;26.48;24.02;;;16.00;60.70;;;;;;4979313;28;20177;-86
2023/04/29 11:52:40;;;;;;;21.45;19.55;;;15.70;62.00;;;;;;4977317;28;20171;-86
2023/04/29 11:55:10;;;;;;;21.13;19.02;;;15.90;61.40;;;;;;4978454;28;20175;-86
2023/04/29 11:57:37;;;;;;;20.55;18.65;;;15.80;58.90;;;;;;4976481;28;20206;-86
2023/04/29 12:00:03;;;;;;;28.73;26.17;;;15.90;59.30;;;;;;4977991;28;20171;-86
2023/04/29 12:02:32;;;;;;;28.70;26.27;;;16.20;58.80;;;;;;4977384;28;20206;-86
2023/04/29 12:05:07;;;;;;;29.92;27.17;;;16.30;59.60;;;;;;4975698;28;20209;-86
2023/04/29 12:07:35;;;;;;;22.77;20.77;;;16.30;59.30;;;;;;4975813;28;20222;-86
2023/04/29 12:10:00;;;;;;;23.50;21.23;;;16.10;57.30;;;;;;4977668;28;20171;-86
2023/04/29 12:12:27;;;;;;;22.55;20.65;;;15.90;59.20;;;;;;4977773;28;20309;-85
2023/04/29 12:14:53;;;;;;;23.48;21.48;;;15.90;57.40;;;;;;4975743;28;20182;-86
2023/04/29 12:17:19;;;;;;;22.75;20.98;;;16.30;55.80;;;;;;4977261;28;20190;-86
2023/04/29 12:19:45;;;;;;;25.25;23.15;;;16.30;57.20;;;;;;4976572;28;20181;-86
2023/04/29 12:22:11;;;;;;;21.75;19.73;;;16.30;55.50;;;;;;4975196;28;20179;-86
2023/04/29 12:24:38;;;;;;;20.70;18.98;;;16.50;55.20;;;;;;4976190;28;20203;-86
2023/04/29 12:27:07;;;;;;;21.10;19.33;;;16.20;57.10;;;;;;4974859;28;20560;-86
2023/04/29 12:29:34;;;;;;;19.92;18.05;;;16.60;55.30;;;;;;4976194;28;20202;-87
2023/04/29 12:31:59;;;;;;;19.73;17.98;;;16.80;55.80;;;;;;4991197;28;20196;-87
2023/04/29 12:34:28;;;;;;;19.52;17.73;;;16.80;52.50;;;;;;4976342;28;20182;-87